sensor_id;sensor_type;location;lat;lon;timestamp;pressure;altitude;pressure_sealevel;temperature
23992;BMP280;12205;50.600;4.608;2022-12-18T00:01:18;101209.91;;;-4.55
23992;BMP280;12205;50.600;4.608;2022-12-18T00:03:46;101208.34;;;-4.56
23992;BMP280;12205;50.600;4.608;2022-12-18T00:06:14;101204.59;;;-4.60
23992;BMP280;12205;50.600;4.608;2022-12-18T00:08:43;101198.34;;;-4.59
23992;BMP280;12205;50.600;4.608;2022-12-18T00:11:18;101199.59;;;-4.61
23992;BMP280;12205;50.600;4.608;2022-12-18T00:13:45;101197.59;;;-4.66
23992;BMP280;12205;50.600;4.608;2022-12-18T00:16:15;101208.84;;;-4.65
23992;BMP280;12205;50.600;4.608;2022-12-18T00:18:44;101212.09;;;-4.70
23992;BMP280;12205;50.600;4.608;2022-12-18T00:21:12;101217.31;;;-4.70
23992;BMP280;12205;50.600;4.608;2022-12-18T00:23:42;101219.81;;;-4.75
23992;BMP280;12205;50.600;4.608;2022-12-18T00:26:16;101211.84;;;-4.80
23992;BMP280;12205;50.600;4.608;2022-12-18T00:28:45;101209.25;;;-4.80
23992;BMP280;12205;50.600;4.608;2022-12-18T00:31:14;101203.41;;;-4.82
23992;BMP280;12205;50.600;4.608;2022-12-18T00:33:41;101191.41;;;-4.83
23992;BMP280;12205;50.600;4.608;2022-12-18T00:36:12;101182.53;;;-4.82
23992;BMP280;12205;50.600;4.608;2022-12-18T00:38:40;101176.78;;;-4.84
23992;BMP280;12205;50.600;4.608;2022-12-18T00:41:09;101183.44;;;-4.89
23992;BMP280;12205;50.600;4.608;2022-12-18T00:43:39;101177.88;;;-4.92
23992;BMP280;12205;50.600;4.608;2022-12-18T00:46:06;101159.84;;;-4.94
23992;BMP280;12205;50.600;4.608;2022-12-18T00:48:33;101160.75;;;-5.00
23992;BMP280;12205;50.600;4.608;2022-12-18T00:51:00;101163.53;;;-5.01
23992;BMP280;12205;50.600;4.608;2022-12-18T00:53:27;101161.34;;;-5.05
23992;BMP280;12205;50.600;4.608;2022-12-18T00:55:55;101160.41;;;-5.10
23992;BMP280;12205;50.600;4.608;2022-12-18T00:58:23;101149.84;;;-5.15
23992;BMP280;12205;50.600;4.608;2022-12-18T01:00:51;101163.69;;;-5.15
23992;BMP280;12205;50.600;4.608;2022-12-18T01:03:18;101162.09;;;-5.16
23992;BMP280;12205;50.600;4.608;2022-12-18T01:05:45;101155.47;;;-5.19
23992;BMP280;12205;50.600;4.608;2022-12-18T01:08:12;101156.88;;;-5.16
23992;BMP280;12205;50.600;4.608;2022-12-18T01:10:43;101158.72;;;-5.16
23992;BMP280;12205;50.600;4.608;2022-12-18T01:13:10;101147.25;;;-5.15
23992;BMP280;12205;50.600;4.608;2022-12-18T01:15:37;101159.69;;;-5.17
23992;BMP280;12205;50.600;4.608;2022-12-18T01:18:06;101154.88;;;-5.14
23992;BMP280;12205;50.600;4.608;2022-12-18T01:20:33;101141.16;;;-5.09
23992;BMP280;12205;50.600;4.608;2022-12-18T01:23:00;101139.13;;;-5.07
23992;BMP280;12205;50.600;4.608;2022-12-18T01:25:27;101137.31;;;-5.07
23992;BMP280;12205;50.600;4.608;2022-12-18T01:27:55;101138.94;;;-5.06
23992;BMP280;12205;50.600;4.608;2022-12-18T01:30:22;101136.66;;;-5.02
23992;BMP280;12205;50.600;4.608;2022-12-18T01:32:49;101131.22;;;-5.00
23992;BMP280;12205;50.600;4.608;2022-12-18T01:35:18;101122.41;;;-4.99
23992;BMP280;12205;50.600;4.608;2022-12-18T01:37:45;101130.38;;;-4.94
23992;BMP280;12205;50.600;4.608;2022-12-18T01:40:13;101132.16;;;-4.95
23992;BMP280;12205;50.600;4.608;2022-12-18T01:42:40;101126.63;;;-4.98
23992;BMP280;12205;50.600;4.608;2022-12-18T01:45:26;101124.63;;;-5.03
23992;BMP280;12205;50.600;4.608;2022-12-18T01:47:56;101122.03;;;-5.03
23992;BMP280;12205;50.600;4.608;2022-12-18T01:50:32;101101.34;;;-4.98
23992;BMP280;12205;50.600;4.608;2022-12-18T01:53:06;101091.59;;;-4.91
23992;BMP280;12205;50.600;4.608;2022-12-18T01:55:40;101093.22;;;-4.90
23992;BMP280;12205;50.600;4.608;2022-12-18T01:58:10;101097.28;;;-4.94
23992;BMP280;12205;50.600;4.608;2022-12-18T02:00:37;101096.13;;;-4.98
23992;BMP280;12205;50.600;4.608;2022-12-18T02:03:04;101116.53;;;-4.95
23992;BMP280;12205;50.600;4.608;2022-12-18T02:05:44;101124.56;;;-4.96
23992;BMP280;12205;50.600;4.608;2022-12-18T02:08:21;101116.53;;;-4.95
23992;BMP280;12205;50.600;4.608;2022-12-18T02:10:57;101126.63;;;-4.98
23992;BMP280;12205;50.600;4.608;2022-12-18T02:13:37;101131.03;;;-4.99
23992;BMP280;12205;50.600;4.608;2022-12-18T02:16:16;101125.22;;;-5.01
23992;BMP280;12205;50.600;4.608;2022-12-18T02:18:51;101129.47;;;-5.00
23992;BMP280;12205;50.600;4.608;2022-12-18T02:21:32;101133.03;;;-5.01
23992;BMP280;12205;50.600;4.608;2022-12-18T02:24:22;101130.88;;;-5.04
23992;BMP280;12205;50.600;4.608;2022-12-18T02:26:57;101128.50;;;-5.06
23992;BMP280;12205;50.600;4.608;2022-12-18T02:29:35;101121.59;;;-5.19
23992;BMP280;12205;50.600;4.608;2022-12-18T02:32:10;101132.47;;;-5.22
23992;BMP280;12205;50.600;4.608;2022-12-18T02:34:40;101124.50;;;-5.27
23992;BMP280;12205;50.600;4.608;2022-12-18T02:37:16;101111.84;;;-5.23
23992;BMP280;12205;50.600;4.608;2022-12-18T02:39:51;101120.91;;;-5.26
23992;BMP280;12205;50.600;4.608;2022-12-18T02:42:22;101119.31;;;-5.27
23992;BMP280;12205;50.600;4.608;2022-12-18T02:44:52;101116.13;;;-5.29
23992;BMP280;12205;50.600;4.608;2022-12-18T02:47:27;101119.00;;;-5.37
23992;BMP280;12205;50.600;4.608;2022-12-18T02:50:07;101135.81;;;-5.33
23992;BMP280;12205;50.600;4.608;2022-12-18T02:52:50;101131.22;;;-5.38
23992;BMP280;12205;50.600;4.608;2022-12-18T02:55:30;101134.50;;;-5.42
23992;BMP280;12205;50.600;4.608;2022-12-18T02:58:15;101139.91;;;-5.44
23992;BMP280;12205;50.600;4.608;2022-12-18T03:00:58;101139.56;;;-5.47
23992;BMP280;12205;50.600;4.608;2022-12-18T03:03:35;101136.78;;;-5.53
23992;BMP280;12205;50.600;4.608;2022-12-18T03:06:12;101136.41;;;-5.56
23992;BMP280;12205;50.600;4.608;2022-12-18T03:08:47;101133.22;;;-5.58
23992;BMP280;12205;50.600;4.608;2022-12-18T03:11:16;101120.88;;;-5.63
23992;BMP280;12205;50.600;4.608;2022-12-18T03:14:10;101095.69;;;-5.69
23992;BMP280;12205;50.600;4.608;2022-12-18T03:16:42;101098.84;;;-5.67
23992;BMP280;12205;50.600;4.608;2022-12-18T03:19:15;101097.09;;;-5.66
23992;BMP280;12205;50.600;4.608;2022-12-18T03:21:47;101095.69;;;-5.69
23992;BMP280;12205;50.600;4.608;2022-12-18T03:24:19;101096.47;;;-5.69
23992;BMP280;12205;50.600;4.608;2022-12-18T03:26:54;101088.44;;;-5.67
23992;BMP280;12205;50.600;4.608;2022-12-18T03:29:32;101088.28;;;-5.72
23992;BMP280;12205;50.600;4.608;2022-12-18T03:32:06;101080.06;;;-5.69
23992;BMP280;12205;50.600;4.608;2022-12-18T03:34:37;101085.28;;;-5.69
23992;BMP280;12205;50.600;4.608;2022-12-18T03:37:08;101084.13;;;-5.73
23992;BMP280;12205;50.600;4.608;2022-12-18T03:39:37;101092.94;;;-5.74
23992;BMP280;12205;50.600;4.608;2022-12-18T03:42:12;101089.72;;;-5.76
23992;BMP280;12205;50.600;4.608;2022-12-18T03:44:57;101093.38;;;-5.77
23992;BMP280;12205;50.600;4.608;2022-12-18T03:47:36;101076.16;;;-5.78
23992;BMP280;12205;50.600;4.608;2022-12-18T03:50:14;101072.16;;;-5.81
23992;BMP280;12205;50.600;4.608;2022-12-18T03:52:51;101061.97;;;-5.82
23992;BMP280;12205;50.600;4.608;2022-12-18T03:55:24;101049.00;;;-5.89
23992;BMP280;12205;50.600;4.608;2022-12-18T03:58:01;101059.78;;;-5.86
23992;BMP280;12205;50.600;4.608;2022-12-18T04:00:42;101070.19;;;-5.86
23992;BMP280;12205;50.600;4.608;2022-12-18T04:03:13;101067.00;;;-5.88
23992;BMP280;12205;50.600;4.608;2022-12-18T04:05:48;101060.63;;;-5.92
23992;BMP280;12205;50.600;4.608;2022-12-18T04:08:19;101062.25;;;-5.91
23992;BMP280;12205;50.600;4.608;2022-12-18T04:10:56;101059.03;;;-5.93
23992;BMP280;12205;50.600;4.608;2022-12-18T04:13:28;101057.91;;;-5.97
23992;BMP280;12205;50.600;4.608;2022-12-18T04:15:58;101079.88;;;-5.93
23992;BMP280;12205;50.600;4.608;2022-12-18T04:18:26;101072.50;;;-5.96
23992;BMP280;12205;50.600;4.608;2022-12-18T04:20:54;101080.72;;;-5.99
23992;BMP280;12205;50.600;4.608;2022-12-18T04:23:22;101070.38;;;-6.06
23992;BMP280;12205;50.600;4.608;2022-12-18T04:25:52;101063.22;;;-6.10
23992;BMP280;12205;50.600;4.608;2022-12-18T04:28:33;101073.91;;;-6.00
23992;BMP280;12205;50.600;4.608;2022-12-18T04:31:02;101084.31;;;-6.00
23992;BMP280;12205;50.600;4.608;2022-12-18T04:33:29;101089.53;;;-6.00
23992;BMP280;12205;50.600;4.608;2022-12-18T04:35:57;101098.38;;;-6.01
23992;BMP280;12205;50.600;4.608;2022-12-18T04:38:24;101093.00;;;-6.06
23992;BMP280;12205;50.600;4.608;2022-12-18T04:40:59;101094.00;;;-6.07
23992;BMP280;12205;50.600;4.608;2022-12-18T04:43:27;101098.47;;;-6.14
23992;BMP280;12205;50.600;4.608;2022-12-18T04:46:03;101108.91;;;-6.21
23992;BMP280;12205;50.600;4.608;2022-12-18T04:48:31;101102.34;;;-6.24
23992;BMP280;12205;50.600;4.608;2022-12-18T04:50:58;101109.81;;;-6.34
23992;BMP280;12205;50.600;4.608;2022-12-18T04:53:25;101093.81;;;-6.38
23992;BMP280;12205;50.600;4.608;2022-12-18T04:56:06;101096.56;;;-6.26
23992;BMP280;12205;50.600;4.608;2022-12-18T04:58:33;101090.09;;;-6.23
23992;BMP280;12205;50.600;4.608;2022-12-18T05:01:02;101081.31;;;-6.22
23992;BMP280;12205;50.600;4.608;2022-12-18T05:03:30;101082.13;;;-6.22
23992;BMP280;12205;50.600;4.608;2022-12-18T05:05:57;101077.31;;;-6.25
23992;BMP280;12205;50.600;4.608;2022-12-18T05:08:24;101068.50;;;-6.24
23992;BMP280;12205;50.600;4.608;2022-12-18T05:10:59;101076.91;;;-6.22
23992;BMP280;12205;50.600;4.608;2022-12-18T05:13:27;101078.47;;;-6.21
23992;BMP280;12205;50.600;4.608;2022-12-18T05:15:55;101063.72;;;-6.27
23992;BMP280;12205;50.600;4.608;2022-12-18T05:18:24;101071.28;;;-6.19
23992;BMP280;12205;50.600;4.608;2022-12-18T05:20:53;101073.66;;;-6.17
23992;BMP280;12205;50.600;4.608;2022-12-18T05:23:22;101069.25;;;-6.17
23992;BMP280;12205;50.600;4.608;2022-12-18T05:25:51;101069.25;;;-6.17
23992;BMP280;12205;50.600;4.608;2022-12-18T05:28:20;101071.28;;;-6.19
23992;BMP280;12205;50.600;4.608;2022-12-18T05:30:50;101086.88;;;-6.19
23992;BMP280;12205;50.600;4.608;2022-12-18T05:33:17;101088.88;;;-6.21
23992;BMP280;12205;50.600;4.608;2022-12-18T05:35:50;101082.13;;;-6.22
23992;BMP280;12205;50.600;4.608;2022-12-18T05:38:17;101082.69;;;-6.20
23992;BMP280;12205;50.600;4.608;2022-12-18T05:40:45;101093.69;;;-6.18
23992;BMP280;12205;50.600;4.608;2022-12-18T05:43:12;101090.50;;;-6.20
23992;BMP280;12205;50.600;4.608;2022-12-18T05:45:40;101090.50;;;-6.20
23992;BMP280;12205;50.600;4.608;2022-12-18T05:48:08;101088.88;;;-6.21
23992;BMP280;12205;50.600;4.608;2022-12-18T05:50:36;101082.91;;;-6.21
23992;BMP280;12205;50.600;4.608;2022-12-18T05:53:06;101088.31;;;-6.23
23992;BMP280;12205;50.600;4.608;2022-12-18T05:55:34;101083.34;;;-6.24
23992;BMP280;12205;50.600;4.608;2022-12-18T05:58:01;101084.91;;;-6.23
23992;BMP280;12205;50.600;4.608;2022-12-18T06:00:29;101090.94;;;-6.23
23992;BMP280;12205;50.600;4.608;2022-12-18T06:02:57;101089.31;;;-6.24
23992;BMP280;12205;50.600;4.608;2022-12-18T06:05:25;101098.72;;;-6.23
23992;BMP280;12205;50.600;4.608;2022-12-18T06:07:52;101104.94;;;-6.24
23992;BMP280;12205;50.600;4.608;2022-12-18T06:10:21;101104.16;;;-6.24
23992;BMP280;12205;50.600;4.608;2022-12-18T06:12:48;101097.75;;;-6.28
23992;BMP280;12205;50.600;4.608;2022-12-18T06:15:16;101086.97;;;-6.32
23992;BMP280;12205;50.600;4.608;2022-12-18T06:17:43;101082.59;;;-6.31
23992;BMP280;12205;50.600;4.608;2022-12-18T06:20:10;101078.38;;;-6.32
23992;BMP280;12205;50.600;4.608;2022-12-18T06:22:37;101069.75;;;-6.33
23992;BMP280;12205;50.600;4.608;2022-12-18T06:25:06;101076.94;;;-6.28
23992;BMP280;12205;50.600;4.608;2022-12-18T06:27:34;101078.16;;;-6.31
23992;BMP280;12205;50.600;4.608;2022-12-18T06:30:02;101074.13;;;-6.27
23992;BMP280;12205;50.600;4.608;2022-12-18T06:32:29;101084.53;;;-6.27
23992;BMP280;12205;50.600;4.608;2022-12-18T06:34:57;101074.13;;;-6.27
23992;BMP280;12205;50.600;4.608;2022-12-18T06:37:24;101073.94;;;-6.25
23992;BMP280;12205;50.600;4.608;2022-12-18T06:39:52;101070.13;;;-6.23
23992;BMP280;12205;50.600;4.608;2022-12-18T06:42:19;101060.50;;;-6.22
23992;BMP280;12205;50.600;4.608;2022-12-18T06:44:47;101062.88;;;-6.21
23992;BMP280;12205;50.600;4.608;2022-12-18T06:47:15;101064.91;;;-6.23
23992;BMP280;12205;50.600;4.608;2022-12-18T06:49:42;101058.09;;;-6.24
23992;BMP280;12205;50.600;4.608;2022-12-18T06:52:10;101046.91;;;-6.24
23992;BMP280;12205;50.600;4.608;2022-12-18T06:54:37;101039.47;;;-6.21
23992;BMP280;12205;50.600;4.608;2022-12-18T06:57:04;101031.25;;;-6.18
23992;BMP280;12205;50.600;4.608;2022-12-18T06:59:31;101029.81;;;-6.13
23992;BMP280;12205;50.600;4.608;2022-12-18T07:01:59;101041.22;;;-6.14
23992;BMP280;12205;50.600;4.608;2022-12-18T07:04:28;101032.41;;;-6.13
23992;BMP280;12205;50.600;4.608;2022-12-18T07:06:56;101028.81;;;-6.12
23992;BMP280;12205;50.600;4.608;2022-12-18T07:09:23;101010.75;;;-6.07
23992;BMP280;12205;50.600;4.608;2022-12-18T07:11:50;101011.91;;;-6.03
23992;BMP280;12205;50.600;4.608;2022-12-18T07:14:17;101001.63;;;-5.98
23992;BMP280;12205;50.600;4.608;2022-12-18T07:16:45;100998.63;;;-5.95
23992;BMP280;12205;50.600;4.608;2022-12-18T07:19:13;100997.75;;;-5.89
23992;BMP280;12205;50.600;4.608;2022-12-18T07:21:40;101005.69;;;-5.83
23992;BMP280;12205;50.600;4.608;2022-12-18T07:24:07;101009.31;;;-5.85
23992;BMP280;12205;50.600;4.608;2022-12-18T07:26:35;100998.84;;;-5.78
23992;BMP280;12205;50.600;4.608;2022-12-18T07:29:02;100992.41;;;-5.75
23992;BMP280;12205;50.600;4.608;2022-12-18T07:31:29;100986.19;;;-5.74
23992;BMP280;12205;50.600;4.608;2022-12-18T07:33:56;100985.19;;;-5.73
23992;BMP280;12205;50.600;4.608;2022-12-18T07:36:25;100970.28;;;-5.66
23992;BMP280;12205;50.600;4.608;2022-12-18T07:38:52;100958.56;;;-5.57
23992;BMP280;12205;50.600;4.608;2022-12-18T07:41:20;100953.41;;;-5.45
23992;BMP280;12205;50.600;4.608;2022-12-18T07:43:48;100949.03;;;-5.32
23992;BMP280;12205;50.600;4.608;2022-12-18T07:46:15;100935.78;;;-5.31
23992;BMP280;12205;50.600;4.608;2022-12-18T07:48:43;100946.47;;;-5.21
23992;BMP280;12205;50.600;4.608;2022-12-18T07:51:13;100919.38;;;-5.20
23992;BMP280;12205;50.600;4.608;2022-12-18T07:53:42;100930.97;;;-5.04
23992;BMP280;12205;50.600;4.608;2022-12-18T07:56:11;100930.91;;;-4.97
23992;BMP280;12205;50.600;4.608;2022-12-18T07:58:39;100919.56;;;-4.91
23992;BMP280;12205;50.600;4.608;2022-12-18T08:01:09;100927.25;;;-4.84
23992;BMP280;12205;50.600;4.608;2022-12-18T08:03:38;100903.91;;;-4.91
23992;BMP280;12205;50.600;4.608;2022-12-18T08:06:08;100930.91;;;-4.73
23992;BMP280;12205;50.600;4.608;2022-12-18T08:08:36;100924.81;;;-4.67
23992;BMP280;12205;50.600;4.608;2022-12-18T08:11:04;100930.81;;;-4.55
23992;BMP280;12205;50.600;4.608;2022-12-18T08:13:32;100931.72;;;-4.49
23992;BMP280;12205;50.600;4.608;2022-12-18T08:16:02;100927.97;;;-4.41
23992;BMP280;12205;50.600;4.608;2022-12-18T08:18:33;100927.06;;;-4.35
23992;BMP280;12205;50.600;4.608;2022-12-18T08:21:08;100929.31;;;-4.27
23992;BMP280;12205;50.600;4.608;2022-12-18T08:23:37;100927.50;;;-4.14
23992;BMP280;12205;50.600;4.608;2022-12-18T08:26:06;100926.66;;;-4.03
23992;BMP280;12205;50.600;4.608;2022-12-18T08:28:33;100908.88;;;-4.06
23992;BMP280;12205;50.600;4.608;2022-12-18T08:31:01;100926.03;;;-3.81
23992;BMP280;12205;50.600;4.608;2022-12-18T08:33:28;100915.47;;;-3.75
23992;BMP280;12205;50.600;4.608;2022-12-18T08:35:55;100910.09;;;-3.68
23992;BMP280;12205;50.600;4.608;2022-12-18T08:38:22;100891.72;;;-3.73
23992;BMP280;12205;50.600;4.608;2022-12-18T08:40:57;100892.09;;;-3.52
23992;BMP280;12205;50.600;4.608;2022-12-18T08:43:26;100905.41;;;-3.37
23992;BMP280;12205;50.600;4.608;2022-12-18T08:46:11;100901.94;;;-3.26
23992;BMP280;12205;50.600;4.608;2022-12-18T08:48:38;100893.72;;;-3.17
23992;BMP280;12205;50.600;4.608;2022-12-18T08:51:05;100888.31;;;-3.11
23992;BMP280;12205;50.600;4.608;2022-12-18T08:53:32;100874.84;;;-3.02
23992;BMP280;12205;50.600;4.608;2022-12-18T08:55:59;100869.75;;;-2.92
23992;BMP280;12205;50.600;4.608;2022-12-18T08:58:28;100872.75;;;-2.83
23992;BMP280;12205;50.600;4.608;2022-12-18T09:01:00;100857.84;;;-2.83
23992;BMP280;12205;50.600;4.608;2022-12-18T09:03:28;100883.50;;;-2.63
23992;BMP280;12205;50.600;4.608;2022-12-18T09:05:55;100890.44;;;-2.51
23992;BMP280;12205;50.600;4.608;2022-12-18T09:08:22;100896.56;;;-2.41
23992;BMP280;12205;50.600;4.608;2022-12-18T09:10:50;100896.50;;;-2.29
23992;BMP280;12205;50.600;4.608;2022-12-18T09:13:18;100912.84;;;-2.16
23992;BMP280;12205;50.600;4.608;2022-12-18T09:15:49;100918.50;;;-2.03
23992;BMP280;12205;50.600;4.608;2022-12-18T09:18:18;100925.69;;;-1.93
23992;BMP280;12205;50.600;4.608;2022-12-18T09:20:46;100930.81;;;-1.81
23992;BMP280;12205;50.600;4.608;2022-12-18T09:23:13;100922.50;;;-1.73
23992;BMP280;12205;50.600;4.608;2022-12-18T09:25:41;100918.13;;;-1.62
23992;BMP280;12205;50.600;4.608;2022-12-18T09:28:15;100913.47;;;-1.55
23992;BMP280;12205;50.600;4.608;2022-12-18T09:30:46;100903.38;;;-1.41
23992;BMP280;12205;50.600;4.608;2022-12-18T09:33:15;100902.13;;;-1.33
23992;BMP280;12205;50.600;4.608;2022-12-18T09:35:44;100902.75;;;-1.21
23992;BMP280;12205;50.600;4.608;2022-12-18T09:38:14;100900.94;;;-1.15
23992;BMP280;12205;50.600;4.608;2022-12-18T09:40:45;100909.63;;;-1.09
23992;BMP280;12205;50.600;4.608;2022-12-18T09:43:17;100917.56;;;-0.99
23992;BMP280;12205;50.600;4.608;2022-12-18T09:45:51;100913.19;;;-0.88
23992;BMP280;12205;50.600;4.608;2022-12-18T09:48:27;100901.66;;;-0.82
23992;BMP280;12205;50.600;4.608;2022-12-18T09:51:01;100900.41;;;-0.74
23992;BMP280;12205;50.600;4.608;2022-12-18T09:53:35;100896.75;;;-0.68
23992;BMP280;12205;50.600;4.608;2022-12-18T09:56:05;100919.59;;;-0.69
23992;BMP280;12205;50.600;4.608;2022-12-18T09:58:40;100921.44;;;-0.64
23992;BMP280;12205;50.600;4.608;2022-12-18T10:01:14;100926.75;;;-0.48
23992;BMP280;12205;50.600;4.608;2022-12-18T10:03:45;100928.38;;;-0.42
23992;BMP280;12205;50.600;4.608;2022-12-18T10:06:18;100933.69;;;-0.32
23992;BMP280;12205;50.600;4.608;2022-12-18T10:08:57;100932.66;;;-0.26
23992;BMP280;12205;50.600;4.608;2022-12-18T10:11:40;100923.47;;;-0.18
23992;BMP280;12205;50.600;4.608;2022-12-18T10:14:19;100920.09;;;-0.13
23992;BMP280;12205;50.600;4.608;2022-12-18T10:17:03;100909.34;;;-0.02
23992;BMP280;12205;50.600;4.608;2022-12-18T10:19:43;100888.31;;;-0.02
23992;BMP280;12205;50.600;4.608;2022-12-18T10:22:43;100892.81;;;0.13
23992;BMP280;12205;50.600;4.608;2022-12-18T10:25:22;100891.78;;;0.20
23992;BMP280;12205;50.600;4.608;2022-12-18T10:27:56;100888.09;;;0.26
23992;BMP280;12205;50.600;4.608;2022-12-18T10:30:25;100876.81;;;0.30
23992;BMP280;12205;50.600;4.608;2022-12-18T10:32:54;100880.19;;;0.36
23992;BMP280;12205;50.600;4.608;2022-12-18T10:35:25;100876.47;;;0.37
23992;BMP280;12205;50.600;4.608;2022-12-18T10:38:06;100863.88;;;0.39
23992;BMP280;12205;50.600;4.608;2022-12-18T10:40:48;100863.84;;;0.49
23992;BMP280;12205;50.600;4.608;2022-12-18T10:43:21;100853.34;;;0.60
23992;BMP280;12205;50.600;4.608;2022-12-18T10:46:05;100862.28;;;0.64
23992;BMP280;12205;50.600;4.608;2022-12-18T10:48:52;100868.59;;;0.63
23992;BMP280;12205;50.600;4.608;2022-12-18T10:51:23;100863.84;;;0.70
23992;BMP280;12205;50.600;4.608;2022-12-18T10:53:56;100872.78;;;0.79
23992;BMP280;12205;50.600;4.608;2022-12-18T10:56:27;100876.97;;;0.85
23992;BMP280;12205;50.600;4.608;2022-12-18T10:59:01;100884.84;;;0.91
23992;BMP280;12205;50.600;4.608;2022-12-18T11:01:50;100868.00;;;0.97
23992;BMP280;12205;50.600;4.608;2022-12-18T11:04:23;100868.78;;;0.97
23992;BMP280;12205;50.600;4.608;2022-12-18T11:06:59;100862.72;;;1.02
23992;BMP280;12205;50.600;4.608;2022-12-18T11:09:29;100861.66;;;1.03
23992;BMP280;12205;50.600;4.608;2022-12-18T11:11:59;100856.13;;;1.10
23992;BMP280;12205;50.600;4.608;2022-12-18T11:14:29;100862.72;;;1.07
23992;BMP280;12205;50.600;4.608;2022-12-18T11:17:00;100862.16;;;1.15
23992;BMP280;12205;50.600;4.608;2022-12-18T11:19:34;100866.59;;;1.20
23992;BMP280;12205;50.600;4.608;2022-12-18T11:22:19;100862.16;;;1.21
23992;BMP280;12205;50.600;4.608;2022-12-18T11:24:54;100859.50;;;1.26
23992;BMP280;12205;50.600;4.608;2022-12-18T11:27:22;100844.22;;;1.23
23992;BMP280;12205;50.600;4.608;2022-12-18T11:29:50;100870.00;;;1.31
23992;BMP280;12205;50.600;4.608;2022-12-18T11:32:31;100871.56;;;1.32
23992;BMP280;12205;50.600;4.608;2022-12-18T11:35:17;100860.53;;;1.30
23992;BMP280;12205;50.600;4.608;2022-12-18T11:37:53;100874.13;;;1.42
23992;BMP280;12205;50.600;4.608;2022-12-18T11:40:33;100875.16;;;1.46
23992;BMP280;12205;50.600;4.608;2022-12-18T11:43:10;100876.25;;;1.40
23992;BMP280;12205;50.600;4.608;2022-12-18T11:45:43;100877.84;;;1.41
23992;BMP280;12205;50.600;4.608;2022-12-18T11:48:19;100879.38;;;1.42
23992;BMP280;12205;50.600;4.608;2022-12-18T11:50:54;100873.06;;;1.48
23992;BMP280;12205;50.600;4.608;2022-12-18T11:53:23;100875.69;;;1.48
23992;BMP280;12205;50.600;4.608;2022-12-18T11:56:25;100889.94;;;1.42
23992;BMP280;12205;50.600;4.608;2022-12-18T11:59:06;100878.34;;;1.38
23992;BMP280;12205;50.600;4.608;2022-12-18T12:01:49;100871.59;;;1.27
23992;BMP280;12205;50.600;4.608;2022-12-18T12:04:43;100874.66;;;1.39
23992;BMP280;12205;50.600;4.608;2022-12-18T12:07:28;100868.84;;;1.47
23992;BMP280;12205;50.600;4.608;2022-12-18T12:10:14;100858.84;;;1.49
23992;BMP280;12205;50.600;4.608;2022-12-18T12:13:05;100842.47;;;1.52
23992;BMP280;12205;50.600;4.608;2022-12-18T12:15:42;100856.88;;;1.65
23992;BMP280;12205;50.600;4.608;2022-12-18T12:18:28;100846.91;;;1.62
23992;BMP280;12205;50.600;4.608;2022-12-18T12:21:05;100852.09;;;1.73
23992;BMP280;12205;50.600;4.608;2022-12-18T12:23:48;100852.63;;;1.75
23992;BMP280;12205;50.600;4.608;2022-12-18T12:26:27;100850.28;;;1.73
23992;BMP280;12205;50.600;4.608;2022-12-18T12:29:15;100848.69;;;1.72
23992;BMP280;12205;50.600;4.608;2022-12-18T12:32:09;100819.78;;;1.62
23992;BMP280;12205;50.600;4.608;2022-12-18T12:34:53;100828.09;;;1.79
23992;BMP280;12205;50.600;4.608;2022-12-18T12:37:33;100833.41;;;1.74
23992;BMP280;12205;50.600;4.608;2022-12-18T12:40:06;100840.22;;;1.75
23992;BMP280;12205;50.600;4.608;2022-12-18T12:42:38;100838.44;;;1.70
23992;BMP280;12205;50.600;4.608;2022-12-18T12:45:33;100838.69;;;1.74
23992;BMP280;12205;50.600;4.608;2022-12-18T12:48:02;100828.63;;;1.76
23992;BMP280;12205;50.600;4.608;2022-12-18T12:50:34;100826.56;;;1.73
23992;BMP280;12205;50.600;4.608;2022-12-18T12:53:08;100817.09;;;1.67
23992;BMP280;12205;50.600;4.608;2022-12-18T12:55:39;100835.78;;;1.76
23992;BMP280;12205;50.600;4.608;2022-12-18T12:58:17;100828.63;;;1.76
23992;BMP280;12205;50.600;4.608;2022-12-18T13:01:01;100819.41;;;1.79
23992;BMP280;12205;50.600;4.608;2022-12-18T13:03:46;100811.19;;;1.85
23992;BMP280;12205;50.600;4.608;2022-12-18T13:06:33;100808.00;;;1.88
23992;BMP280;12205;50.600;4.608;2022-12-18T13:09:02;100807.50;;;1.86
23992;BMP280;12205;50.600;4.608;2022-12-18T13:11:38;100792.75;;;1.85
23992;BMP280;12205;50.600;4.608;2022-12-18T13:14:28;100794.38;;;1.76
23992;BMP280;12205;50.600;4.608;2022-12-18T13:17:29;100788.84;;;1.73
23992;BMP280;12205;50.600;4.608;2022-12-18T13:20:07;100792.78;;;1.75
23992;BMP280;12205;50.600;4.608;2022-12-18T13:22:38;100793.34;;;1.72
23992;BMP280;12205;50.600;4.608;2022-12-18T13:25:29;100794.41;;;1.71
23992;BMP280;12205;50.600;4.608;2022-12-18T13:28:07;100791.00;;;1.70
23992;BMP280;12205;50.600;4.608;2022-12-18T13:30:56;100779.16;;;1.68
23992;BMP280;12205;50.600;4.608;2022-12-18T13:33:47;100796.25;;;1.76
23992;BMP280;12205;50.600;4.608;2022-12-18T13:36:32;100798.63;;;1.72
23992;BMP280;12205;50.600;4.608;2022-12-18T13:39:24;100801.44;;;1.81
23992;BMP280;12205;50.600;4.608;2022-12-18T13:41:54;100797.00;;;1.81
23992;BMP280;12205;50.600;4.608;2022-12-18T13:45:39;100781.19;;;1.76
23992;BMP280;12205;50.600;4.608;2022-12-18T13:48:17;100781.78;;;1.68
23992;BMP280;12205;50.600;4.608;2022-12-18T13:50:53;100779.44;;;1.66
23992;BMP280;12205;50.600;4.608;2022-12-18T13:53:26;100768.09;;;1.66
23992;BMP280;12205;50.600;4.608;2022-12-18T13:55:54;100768.97;;;1.56
23992;BMP280;12205;50.600;4.608;2022-12-18T13:58:22;100774.47;;;1.60
23992;BMP280;12205;50.600;4.608;2022-12-18T14:00:50;100766.81;;;1.63
23992;BMP280;12205;50.600;4.608;2022-12-18T14:03:23;100767.59;;;1.59
23992;BMP280;12205;50.600;4.608;2022-12-18T14:06:00;100784.22;;;1.59
23992;BMP280;12205;50.600;4.608;2022-12-18T14:08:36;100776.53;;;1.63
23992;BMP280;12205;50.600;4.608;2022-12-18T14:11:06;100784.44;;;1.63
23992;BMP280;12205;50.600;4.608;2022-12-18T14:13:37;100783.91;;;1.66
23992;BMP280;12205;50.600;4.608;2022-12-18T14:16:07;100777.06;;;1.65
23992;BMP280;12205;50.600;4.608;2022-12-18T14:18:44;100768.09;;;1.66
23992;BMP280;12205;50.600;4.608;2022-12-18T14:21:22;100785.47;;;1.67
23992;BMP280;12205;50.600;4.608;2022-12-18T14:24:04;100785.97;;;1.74
23992;BMP280;12205;50.600;4.608;2022-12-18T14:26:31;100787.00;;;1.78
23992;BMP280;12205;50.600;4.608;2022-12-18T14:29:01;100780.63;;;1.84
23992;BMP280;12205;50.600;4.608;2022-12-18T14:31:45;100781.66;;;1.83